sensor_id;sensor_type;location;lat;lon;timestamp;P1;durP1;ratioP1;P2;durP2;ratioP2
20122;SDS011;10222;50.848;4.336;2022-08-04T00:00:26;6.28;;;2.22;;
20122;SDS011;10222;50.848;4.336;2022-08-04T00:06:05;8.38;;;2.40;;
20122;SDS011;10222;50.848;4.336;2022-08-04T00:08:14;4.50;;;2.15;;
20122;SDS011;10222;50.848;4.336;2022-08-04T00:10:43;5.65;;;2.40;;
20122;SDS011;10222;50.848;4.336;2022-08-04T00:13:15;8.48;;;2.15;;
20122;SDS011;10222;50.848;4.336;2022-08-04T00:15:43;5.35;;;2.03;;
20122;SDS011;10222;50.848;4.336;2022-08-04T00:18:10;6.55;;;2.30;;
20122;SDS011;10222;50.848;4.336;2022-08-04T00:20:40;7.60;;;2.45;;
20122;SDS011;10222;50.848;4.336;2022-08-04T00:23:07;8.18;;;2.35;;
20122;SDS011;10222;50.848;4.336;2022-08-04T00:25:33;6.35;;;2.17;;
20122;SDS011;10222;50.848;4.336;2022-08-04T00:28:00;7.75;;;2.17;;
20122;SDS011;10222;50.848;4.336;2022-08-04T00:30:28;10.23;;;2.28;;
20122;SDS011;10222;50.848;4.336;2022-08-04T00:32:55;7.80;;;2.15;;
20122;SDS011;10222;50.848;4.336;2022-08-04T00:35:23;7.68;;;2.70;;
20122;SDS011;10222;50.848;4.336;2022-08-04T00:37:49;9.82;;;2.35;;
20122;SDS011;10222;50.848;4.336;2022-08-04T00:46:48;11.95;;;2.33;;
20122;SDS011;10222;50.848;4.336;2022-08-04T00:51:28;7.55;;;2.42;;
20122;SDS011;10222;50.848;4.336;2022-08-04T00:54:10;8.73;;;2.75;;
20122;SDS011;10222;50.848;4.336;2022-08-04T01:01:39;10.05;;;2.70;;
20122;SDS011;10222;50.848;4.336;2022-08-04T01:04:15;11.88;;;2.60;;
20122;SDS011;10222;50.848;4.336;2022-08-04T01:06:55;8.70;;;2.95;;
20122;SDS011;10222;50.848;4.336;2022-08-04T01:09:49;5.80;;;2.78;;
20122;SDS011;10222;50.848;4.336;2022-08-04T01:30:15;8.93;;;3.58;;
20122;SDS011;10222;50.848;4.336;2022-08-04T01:37:47;9.57;;;3.60;;
20122;SDS011;10222;50.848;4.336;2022-08-04T01:40:14;11.90;;;3.50;;
20122;SDS011;10222;50.848;4.336;2022-08-04T01:42:42;7.53;;;3.35;;
20122;SDS011;10222;50.848;4.336;2022-08-04T01:45:10;9.05;;;2.60;;
20122;SDS011;10222;50.848;4.336;2022-08-04T01:47:37;10.13;;;2.60;;
20122;SDS011;10222;50.848;4.336;2022-08-04T01:50:06;8.80;;;3.33;;
20122;SDS011;10222;50.848;4.336;2022-08-04T01:52:33;6.95;;;3.17;;
20122;SDS011;10222;50.848;4.336;2022-08-04T01:55:00;9.02;;;3.10;;
20122;SDS011;10222;50.848;4.336;2022-08-04T01:57:27;8.82;;;3.05;;
20122;SDS011;10222;50.848;4.336;2022-08-04T01:59:54;9.85;;;2.88;;
20122;SDS011;10222;50.848;4.336;2022-08-04T02:02:23;7.50;;;2.78;;
20122;SDS011;10222;50.848;4.336;2022-08-04T02:04:50;7.85;;;3.22;;
20122;SDS011;10222;50.848;4.336;2022-08-04T02:07:18;5.15;;;2.83;;
20122;SDS011;10222;50.848;4.336;2022-08-04T02:09:58;5.40;;;2.38;;
20122;SDS011;10222;50.848;4.336;2022-08-04T02:12:33;8.88;;;3.20;;
20122;SDS011;10222;50.848;4.336;2022-08-04T02:17:39;6.47;;;2.65;;
20122;SDS011;10222;50.848;4.336;2022-08-04T02:22:43;6.28;;;2.78;;
20122;SDS011;10222;50.848;4.336;2022-08-04T02:25:11;6.93;;;2.80;;
20122;SDS011;10222;50.848;4.336;2022-08-04T02:28:26;6.35;;;2.95;;
20122;SDS011;10222;50.848;4.336;2022-08-04T02:33:27;4.25;;;2.78;;
20122;SDS011;10222;50.848;4.336;2022-08-04T02:35:58;6.72;;;3.20;;
20122;SDS011;10222;50.848;4.336;2022-08-04T02:39:12;7.63;;;3.33;;
20122;SDS011;10222;50.848;4.336;2022-08-04T02:41:14;8.07;;;3.33;;
20122;SDS011;10222;50.848;4.336;2022-08-04T02:43:40;7.25;;;3.67;;
20122;SDS011;10222;50.848;4.336;2022-08-04T02:46:07;9.85;;;3.90;;
20122;SDS011;10222;50.848;4.336;2022-08-04T02:48:34;11.82;;;3.75;;
20122;SDS011;10222;50.848;4.336;2022-08-04T02:51:02;7.55;;;3.40;;
20122;SDS011;10222;50.848;4.336;2022-08-04T02:53:28;6.55;;;3.65;;
20122;SDS011;10222;50.848;4.336;2022-08-04T02:55:55;9.82;;;3.85;;
20122;SDS011;10222;50.848;4.336;2022-08-04T02:58:23;7.55;;;3.25;;
20122;SDS011;10222;50.848;4.336;2022-08-04T03:00:50;8.82;;;3.53;;
20122;SDS011;10222;50.848;4.336;2022-08-04T03:18:25;8.80;;;3.20;;
20122;SDS011;10222;50.848;4.336;2022-08-04T03:21:01;7.47;;;3.10;;
20122;SDS011;10222;50.848;4.336;2022-08-04T03:26:27;7.97;;;3.30;;
20122;SDS011;10222;50.848;4.336;2022-08-04T03:31:46;7.43;;;2.95;;
20122;SDS011;10222;50.848;4.336;2022-08-04T03:34:53;13.57;;;3.40;;
20122;SDS011;10222;50.848;4.336;2022-08-04T03:37:19;9.15;;;3.65;;
20122;SDS011;10222;50.848;4.336;2022-08-04T03:39:59;6.25;;;3.22;;
20122;SDS011;10222;50.848;4.336;2022-08-04T03:42:33;8.43;;;3.22;;
20122;SDS011;10222;50.848;4.336;2022-08-04T03:45:21;9.57;;;3.58;;
20122;SDS011;10222;50.848;4.336;2022-08-04T03:53:57;13.93;;;3.78;;
20122;SDS011;10222;50.848;4.336;2022-08-04T04:04:12;13.20;;;4.05;;
20122;SDS011;10222;50.848;4.336;2022-08-04T04:25:24;6.60;;;3.88;;
20122;SDS011;10222;50.848;4.336;2022-08-04T04:39:12;10.18;;;3.35;;
20122;SDS011;10222;50.848;4.336;2022-08-04T04:46:55;8.88;;;3.83;;
20122;SDS011;10222;50.848;4.336;2022-08-04T04:51:59;8.73;;;4.70;;
20122;SDS011;10222;50.848;4.336;2022-08-04T04:59:49;6.68;;;3.88;;
20122;SDS011;10222;50.848;4.336;2022-08-04T05:03:04;8.07;;;3.72;;
20122;SDS011;10222;50.848;4.336;2022-08-04T05:10:25;13.35;;;4.05;;
20122;SDS011;10222;50.848;4.336;2022-08-04T05:15:18;10.32;;;4.32;;
20122;SDS011;10222;50.848;4.336;2022-08-04T05:17:48;10.43;;;3.45;;
20122;SDS011;10222;50.848;4.336;2022-08-04T05:20:17;11.60;;;4.20;;
20122;SDS011;10222;50.848;4.336;2022-08-04T05:22:59;8.73;;;3.60;;
20122;SDS011;10222;50.848;4.336;2022-08-04T05:25:27;11.45;;;3.25;;
20122;SDS011;10222;50.848;4.336;2022-08-04T05:30:20;10.77;;;3.50;;
20122;SDS011;10222;50.848;4.336;2022-08-04T05:32:49;9.90;;;4.10;;
20122;SDS011;10222;50.848;4.336;2022-08-04T05:35:27;9.85;;;3.47;;
20122;SDS011;10222;50.848;4.336;2022-08-04T05:37:55;15.10;;;3.67;;
20122;SDS011;10222;50.848;4.336;2022-08-04T05:40:22;8.70;;;3.70;;
20122;SDS011;10222;50.848;4.336;2022-08-04T05:42:48;13.38;;;3.97;;
20122;SDS011;10222;50.848;4.336;2022-08-04T05:45:16;10.50;;;3.53;;
20122;SDS011;10222;50.848;4.336;2022-08-04T05:47:43;10.63;;;4.05;;
20122;SDS011;10222;50.848;4.336;2022-08-04T05:50:09;11.63;;;3.67;;
20122;SDS011;10222;50.848;4.336;2022-08-04T05:52:36;9.75;;;4.00;;
20122;SDS011;10222;50.848;4.336;2022-08-04T05:55:02;11.52;;;4.00;;
20122;SDS011;10222;50.848;4.336;2022-08-04T05:57:29;10.80;;;4.50;;
20122;SDS011;10222;50.848;4.336;2022-08-04T05:59:56;9.57;;;3.72;;
20122;SDS011;10222;50.848;4.336;2022-08-04T06:02:23;9.55;;;3.90;;
20122;SDS011;10222;50.848;4.336;2022-08-04T06:04:50;9.63;;;4.15;;
20122;SDS011;10222;50.848;4.336;2022-08-04T06:07:17;9.75;;;4.05;;
20122;SDS011;10222;50.848;4.336;2022-08-04T06:09:43;8.95;;;4.15;;
20122;SDS011;10222;50.848;4.336;2022-08-04T06:12:30;14.15;;;4.05;;
20122;SDS011;10222;50.848;4.336;2022-08-04T06:14:57;10.80;;;3.97;;
20122;SDS011;10222;50.848;4.336;2022-08-04T06:17:31;8.60;;;3.65;;
20122;SDS011;10222;50.848;4.336;2022-08-04T06:19:58;7.93;;;3.38;;
20122;SDS011;10222;50.848;4.336;2022-08-04T06:22:26;6.80;;;3.60;;
20122;SDS011;10222;50.848;4.336;2022-08-04T06:24:54;6.53;;;3.05;;
20122;SDS011;10222;50.848;4.336;2022-08-04T06:27:21;10.88;;;3.72;;
20122;SDS011;10222;50.848;4.336;2022-08-04T06:29:48;10.15;;;3.60;;
20122;SDS011;10222;50.848;4.336;2022-08-04T06:32:15;11.80;;;3.17;;
20122;SDS011;10222;50.848;4.336;2022-08-04T06:34:54;6.75;;;3.85;;
20122;SDS011;10222;50.848;4.336;2022-08-04T06:37:21;10.73;;;4.47;;
20122;SDS011;10222;50.848;4.336;2022-08-04T06:39:48;9.60;;;3.83;;
20122;SDS011;10222;50.848;4.336;2022-08-04T06:42:14;13.18;;;3.78;;
20122;SDS011;10222;50.848;4.336;2022-08-04T06:44:41;7.78;;;3.67;;
20122;SDS011;10222;50.848;4.336;2022-08-04T06:47:09;6.35;;;3.67;;
20122;SDS011;10222;50.848;4.336;2022-08-04T06:49:36;13.25;;;4.15;;
20122;SDS011;10222;50.848;4.336;2022-08-04T06:52:02;9.20;;;3.78;;
20122;SDS011;10222;50.848;4.336;2022-08-04T06:54:28;9.57;;;4.30;;
20122;SDS011;10222;50.848;4.336;2022-08-04T06:56:55;10.88;;;3.63;;
20122;SDS011;10222;50.848;4.336;2022-08-04T06:59:22;11.10;;;4.15;;
20122;SDS011;10222;50.848;4.336;2022-08-04T07:01:49;9.60;;;3.92;;
20122;SDS011;10222;50.848;4.336;2022-08-04T07:04:15;8.75;;;3.70;;
20122;SDS011;10222;50.848;4.336;2022-08-04T07:06:41;9.43;;;4.00;;
20122;SDS011;10222;50.848;4.336;2022-08-04T07:09:08;8.00;;;3.67;;
20122;SDS011;10222;50.848;4.336;2022-08-04T07:11:35;7.80;;;3.80;;
20122;SDS011;10222;50.848;4.336;2022-08-04T07:14:01;10.45;;;3.25;;
20122;SDS011;10222;50.848;4.336;2022-08-04T07:16:27;9.15;;;3.30;;
20122;SDS011;10222;50.848;4.336;2022-08-04T07:18:53;9.68;;;3.40;;
20122;SDS011;10222;50.848;4.336;2022-08-04T07:21:20;7.45;;;3.45;;
20122;SDS011;10222;50.848;4.336;2022-08-04T07:23:47;7.85;;;3.42;;
20122;SDS011;10222;50.848;4.336;2022-08-04T07:26:13;7.90;;;3.40;;
20122;SDS011;10222;50.848;4.336;2022-08-04T07:28:41;8.68;;;3.60;;
20122;SDS011;10222;50.848;4.336;2022-08-04T07:31:09;9.52;;;3.70;;
20122;SDS011;10222;50.848;4.336;2022-08-04T07:33:35;10.40;;;3.95;;
20122;SDS011;10222;50.848;4.336;2022-08-04T07:36:01;9.30;;;4.25;;
20122;SDS011;10222;50.848;4.336;2022-08-04T07:38:29;5.68;;;3.28;;
20122;SDS011;10222;50.848;4.336;2022-08-04T07:40:55;8.82;;;3.53;;
20122;SDS011;10222;50.848;4.336;2022-08-04T07:43:21;8.88;;;3.65;;
20122;SDS011;10222;50.848;4.336;2022-08-04T07:45:47;13.68;;;4.20;;
20122;SDS011;10222;50.848;4.336;2022-08-04T07:48:14;9.75;;;3.80;;
20122;SDS011;10222;50.848;4.336;2022-08-04T07:50:42;7.78;;;3.22;;
20122;SDS011;10222;50.848;4.336;2022-08-04T07:53:10;6.15;;;3.53;;
20122;SDS011;10222;50.848;4.336;2022-08-04T07:55:37;6.32;;;3.33;;
20122;SDS011;10222;50.848;4.336;2022-08-04T07:58:04;8.63;;;3.60;;
20122;SDS011;10222;50.848;4.336;2022-08-04T08:00:30;12.45;;;4.15;;
20122;SDS011;10222;50.848;4.336;2022-08-04T08:02:56;9.80;;;4.10;;
20122;SDS011;10222;50.848;4.336;2022-08-04T08:05:22;15.98;;;5.63;;
20122;SDS011;10222;50.848;4.336;2022-08-04T08:07:49;14.85;;;4.65;;
20122;SDS011;10222;50.848;4.336;2022-08-04T08:10:15;17.58;;;5.00;;
20122;SDS011;10222;50.848;4.336;2022-08-04T08:12:42;10.35;;;4.30;;
20122;SDS011;10222;50.848;4.336;2022-08-04T08:15:08;7.35;;;3.88;;
20122;SDS011;10222;50.848;4.336;2022-08-04T08:17:35;12.48;;;4.95;;
20122;SDS011;10222;50.848;4.336;2022-08-04T08:20:01;9.77;;;4.10;;
20122;SDS011;10222;50.848;4.336;2022-08-04T08:22:27;11.15;;;4.90;;
20122;SDS011;10222;50.848;4.336;2022-08-04T08:24:53;9.65;;;5.30;;
20122;SDS011;10222;50.848;4.336;2022-08-04T08:27:19;15.20;;;6.15;;
20122;SDS011;10222;50.848;4.336;2022-08-04T08:29:45;13.70;;;5.95;;
20122;SDS011;10222;50.848;4.336;2022-08-04T08:32:12;14.63;;;7.05;;
20122;SDS011;10222;50.848;4.336;2022-08-04T08:34:38;12.63;;;6.68;;
20122;SDS011;10222;50.848;4.336;2022-08-04T08:37:11;14.27;;;7.07;;
20122;SDS011;10222;50.848;4.336;2022-08-04T08:39:48;11.35;;;6.68;;
20122;SDS011;10222;50.848;4.336;2022-08-04T08:47:23;12.75;;;6.72;;
20122;SDS011;10222;50.848;4.336;2022-08-04T08:52:44;19.65;;;6.63;;
20122;SDS011;10222;50.848;4.336;2022-08-04T09:05:27;17.13;;;6.97;;
20122;SDS011;10222;50.848;4.336;2022-08-04T09:08:13;15.68;;;6.07;;
20122;SDS011;10222;50.848;4.336;2022-08-04T09:13:15;15.30;;;6.53;;
20122;SDS011;10222;50.848;4.336;2022-08-04T09:20:48;13.40;;;6.93;;
20122;SDS011;10222;50.848;4.336;2022-08-04T09:23:16;17.85;;;6.88;;
20122;SDS011;10222;50.848;4.336;2022-08-04T09:28:22;12.95;;;6.57;;
20122;SDS011;10222;50.848;4.336;2022-08-04T09:39:06;16.70;;;8.23;;
20122;SDS011;10222;50.848;4.336;2022-08-04T09:47:12;17.38;;;10.93;;
20122;SDS011;10222;50.848;4.336;2022-08-04T09:52:22;17.15;;;9.95;;
20122;SDS011;10222;50.848;4.336;2022-08-04T10:00:08;19.42;;;11.38;;
20122;SDS011;10222;50.848;4.336;2022-08-04T10:02:37;18.50;;;11.32;;
20122;SDS011;10222;50.848;4.336;2022-08-04T10:05:04;17.35;;;10.77;;
20122;SDS011;10222;50.848;4.336;2022-08-04T10:13:20;19.98;;;12.05;;
20122;SDS011;10222;50.848;4.336;2022-08-04T10:15:50;23.02;;;13.82;;
20122;SDS011;10222;50.848;4.336;2022-08-04T10:21:10;25.25;;;14.43;;
20122;SDS011;10222;50.848;4.336;2022-08-04T10:23:56;23.63;;;14.95;;
20122;SDS011;10222;50.848;4.336;2022-08-04T10:29:11;26.70;;;16.98;;
20122;SDS011;10222;50.848;4.336;2022-08-04T10:31:42;28.00;;;17.08;;
20122;SDS011;10222;50.848;4.336;2022-08-04T10:34:11;26.10;;;16.52;;
20122;SDS011;10222;50.848;4.336;2022-08-04T10:37:00;25.50;;;15.73;;
20122;SDS011;10222;50.848;4.336;2022-08-04T10:39:28;26.35;;;16.13;;
20122;SDS011;10222;50.848;4.336;2022-08-04T10:47:13;20.00;;;13.95;;
20122;SDS011;10222;50.848;4.336;2022-08-04T10:52:13;19.48;;;13.95;;
20122;SDS011;10222;50.848;4.336;2022-08-04T10:59:46;21.40;;;14.35;;
20122;SDS011;10222;50.848;4.336;2022-08-04T11:05:00;19.10;;;13.40;;
20122;SDS011;10222;50.848;4.336;2022-08-04T11:07:31;17.67;;;12.48;;
20122;SDS011;10222;50.848;4.336;2022-08-04T11:09:58;14.90;;;11.20;;
20122;SDS011;10222;50.848;4.336;2022-08-04T11:12:24;15.85;;;12.15;;
20122;SDS011;10222;50.848;4.336;2022-08-04T11:14:58;18.25;;;12.82;;
20122;SDS011;10222;50.848;4.336;2022-08-04T11:17:31;18.35;;;12.43;;
20122;SDS011;10222;50.848;4.336;2022-08-04T11:22:28;14.43;;;10.88;;
20122;SDS011;10222;50.848;4.336;2022-08-04T11:30:14;22.80;;;11.40;;
20122;SDS011;10222;50.848;4.336;2022-08-04T11:32:43;28.10;;;11.98;;
20122;SDS011;10222;50.848;4.336;2022-08-04T11:35:15;15.82;;;11.25;;
20122;SDS011;10222;50.848;4.336;2022-08-04T11:37:47;18.25;;;11.00;;
20122;SDS011;10222;50.848;4.336;2022-08-04T11:40:25;14.30;;;10.48;;
20122;SDS011;10222;50.848;4.336;2022-08-04T11:42:56;17.17;;;10.88;;
20122;SDS011;10222;50.848;4.336;2022-08-04T11:45:31;17.73;;;11.10;;
20122;SDS011;10222;50.848;4.336;2022-08-04T11:48:05;20.20;;;10.18;;
20122;SDS011;10222;50.848;4.336;2022-08-04T11:50:38;13.73;;;9.68;;
20122;SDS011;10222;50.848;4.336;2022-08-04T11:53:05;19.70;;;9.57;;
20122;SDS011;10222;50.848;4.336;2022-08-04T11:55:32;13.13;;;9.60;;
20122;SDS011;10222;50.848;4.336;2022-08-04T11:57:59;10.48;;;7.53;;
20122;SDS011;10222;50.848;4.336;2022-08-04T12:00:26;19.15;;;8.40;;
20122;SDS011;10222;50.848;4.336;2022-08-04T12:03:08;12.50;;;7.60;;
20122;SDS011;10222;50.848;4.336;2022-08-04T12:05:54;14.98;;;7.60;;
20122;SDS011;10222;50.848;4.336;2022-08-04T12:11:14;12.07;;;8.23;;
20122;SDS011;10222;50.848;4.336;2022-08-04T12:13:47;13.23;;;9.05;;
20122;SDS011;10222;50.848;4.336;2022-08-04T12:16:23;13.93;;;9.40;;
20122;SDS011;10222;50.848;4.336;2022-08-04T12:23:52;13.57;;;7.97;;
20122;SDS011;10222;50.848;4.336;2022-08-04T12:26:24;13.32;;;7.75;;
20122;SDS011;10222;50.848;4.336;2022-08-04T12:28:53;11.40;;;7.72;;
20122;SDS011;10222;50.848;4.336;2022-08-04T12:31:25;12.65;;;8.25;;
20122;SDS011;10222;50.848;4.336;2022-08-04T12:33:55;13.10;;;7.72;;
20122;SDS011;10222;50.848;4.336;2022-08-04T12:36:42;12.38;;;8.45;;
20122;SDS011;10222;50.848;4.336;2022-08-04T12:39:14;10.05;;;6.80;;
20122;SDS011;10222;50.848;4.336;2022-08-04T12:41:44;11.73;;;8.60;;
20122;SDS011;10222;50.848;4.336;2022-08-04T12:44:11;11.60;;;7.70;;
20122;SDS011;10222;50.848;4.336;2022-08-04T12:46:38;11.02;;;6.25;;
20122;SDS011;10222;50.848;4.336;2022-08-04T12:49:04;9.43;;;6.03;;
20122;SDS011;10222;50.848;4.336;2022-08-04T12:51:38;10.40;;;5.93;;
20122;SDS011;10222;50.848;4.336;2022-08-04T12:54:05;12.85;;;6.03;;
20122;SDS011;10222;50.848;4.336;2022-08-04T12:56:32;9.48;;;6.05;;
20122;SDS011;10222;50.848;4.336;2022-08-04T12:59:03;10.43;;;5.13;;
20122;SDS011;10222;50.848;4.336;2022-08-04T13:01:29;10.18;;;5.75;;
20122;SDS011;10222;50.848;4.336;2022-08-04T13:04:02;8.57;;;5.07;;
20122;SDS011;10222;50.848;4.336;2022-08-04T13:06:30;7.50;;;4.72;;
20122;SDS011;10222;50.848;4.336;2022-08-04T13:09:07;12.45;;;4.97;;
20122;SDS011;10222;50.848;4.336;2022-08-04T13:11:38;5.78;;;3.90;;
20122;SDS011;10222;50.848;4.336;2022-08-04T13:14:05;11.70;;;4.20;;
20122;SDS011;10222;50.848;4.336;2022-08-04T13:16:32;9.07;;;4.53;;
20122;SDS011;10222;50.848;4.336;2022-08-04T13:18:58;7.97;;;3.95;;
20122;SDS011;10222;50.848;4.336;2022-08-04T13:21:26;6.57;;;4.20;;
20122;SDS011;10222;50.848;4.336;2022-08-04T13:23:57;9.43;;;4.60;;
20122;SDS011;10222;50.848;4.336;2022-08-04T13:26:26;5.63;;;3.72;;
20122;SDS011;10222;50.848;4.336;2022-08-04T13:28:53;6.63;;;4.15;;
20122;SDS011;10222;50.848;4.336;2022-08-04T13:31:20;8.13;;;4.53;;
20122;SDS011;10222;50.848;4.336;2022-08-04T13:33:48;7.63;;;3.50;;
20122;SDS011;10222;50.848;4.336;2022-08-04T13:36:15;10.35;;;3.83;;
20122;SDS011;10222;50.848;4.336;2022-08-04T13:38:52;5.80;;;3.40;;
20122;SDS011;10222;50.848;4.336;2022-08-04T13:41:18;10.30;;;3.17;;
20122;SDS011;10222;50.848;4.336;2022-08-04T13:43:46;16.92;;;4.60;;
20122;SDS011;10222;50.848;4.336;2022-08-04T13:46:15;6.43;;;3.50;;
20122;SDS011;10222;50.848;4.336;2022-08-04T13:48:42;6.63;;;3.83;;
20122;SDS011;10222;50.848;4.336;2022-08-04T13:51:10;6.10;;;3.45;;
20122;SDS011;10222;50.848;4.336;2022-08-04T13:53:36;4.93;;;3.00;;
20122;SDS011;10222;50.848;4.336;2022-08-04T13:56:04;6.95;;;3.88;;
20122;SDS011;10222;50.848;4.336;2022-08-04T13:58:31;10.02;;;3.95;;
20122;SDS011;10222;50.848;4.336;2022-08-04T14:00:59;6.47;;;4.10;;
20122;SDS011;10222;50.848;4.336;2022-08-04T14:08:35;7.00;;;3.55;;
20122;SDS011;10222;50.848;4.336;2022-08-04T14:11:08;6.63;;;3.85;;
20122;SDS011;10222;50.848;4.336;2022-08-04T14:13:34;7.18;;;3.85;;
20122;SDS011;10222;50.848;4.336;2022-08-04T14:16:00;6.72;;;3.40;;
20122;SDS011;10222;50.848;4.336;2022-08-04T14:18:30;4.70;;;2.75;;
20122;SDS011;10222;50.848;4.336;2022-08-04T14:21:00;5.80;;;3.40;;
20122;SDS011;10222;50.848;4.336;2022-08-04T14:23:27;4.32;;;3.25;;
20122;SDS011;10222;50.848;4.336;2022-08-04T14:25:53;5.85;;;3.25;;
20122;SDS011;10222;50.848;4.336;2022-08-04T14:28:26;3.22;;;2.53;;
20122;SDS011;10222;50.848;4.336;2022-08-04T14:31:07;4.18;;;2.75;;
20122;SDS011;10222;50.848;4.336;2022-08-04T14:33:38;3.80;;;2.97;;
20122;SDS011;10222;50.848;4.336;2022-08-04T14:36:05;6.75;;;3.53;;
20122;SDS011;10222;50.848;4.336;2022-08-04T14:38:48;4.32;;;2.50;;
20122;SDS011;10222;50.848;4.336;2022-08-04T14:41:14;7.00;;;2.80;;
20122;SDS011;10222;50.848;4.336;2022-08-04T14:43:42;6.82;;;2.80;;
20122;SDS011;10222;50.848;4.336;2022-08-04T14:46:08;4.28;;;3.13;;
20122;SDS011;10222;50.848;4.336;2022-08-04T14:48:35;6.63;;;2.88;;
20122;SDS011;10222;50.848;4.336;2022-08-04T14:51:01;6.57;;;2.58;;
20122;SDS011;10222;50.848;4.336;2022-08-04T14:53:27;5.60;;;2.88;;
20122;SDS011;10222;50.848;4.336;2022-08-04T14:55:54;4.93;;;2.70;;
20122;SDS011;10222;50.848;4.336;2022-08-04T14:58:22;5.35;;;2.63;;
20122;SDS011;10222;50.848;4.336;2022-08-04T15:00:49;5.82;;;2.63;;
20122;SDS011;10222;50.848;4.336;2022-08-04T15:03:17;6.80;;;2.53;;
20122;SDS011;10222;50.848;4.336;2022-08-04T15:05:43;7.72;;;2.67;;
20122;SDS011;10222;50.848;4.336;2022-08-04T15:08:09;4.53;;;2.20;;
20122;SDS011;10222;50.848;4.336;2022-08-04T15:10:37;4.07;;;2.03;;
20122;SDS011;10222;50.848;4.336;2022-08-04T15:13:04;3.90;;;2.17;;
20122;SDS011;10222;50.848;4.336;2022-08-04T15:15:31;5.80;;;3.28;;
20122;SDS011;10222;50.848;4.336;2022-08-04T15:17:57;5.63;;;2.40;;
20122;SDS011;10222;50.848;4.336;2022-08-04T15:20:24;4.60;;;3.10;;
20122;SDS011;10222;50.848;4.336;2022-08-04T15:22:50;4.28;;;3.33;;
20122;SDS011;10222;50.848;4.336;2022-08-04T15:25:16;5.78;;;2.70;;
20122;SDS011;10222;50.848;4.336;2022-08-04T15:27:42;5.88;;;3.10;;
20122;SDS011;10222;50.848;4.336;2022-08-04T15:30:11;10.27;;;3.45;;
20122;SDS011;10222;50.848;4.336;2022-08-04T15:32:39;6.20;;;3.20;;
20122;SDS011;10222;50.848;4.336;2022-08-04T15:35:10;5.35;;;3.20;;
20122;SDS011;10222;50.848;4.336;2022-08-04T15:40:13;8.55;;;2.90;;
20122;SDS011;10222;50.848;4.336;2022-08-04T15:45:47;4.75;;;2.70;;
20122;SDS011;10222;50.848;4.336;2022-08-04T15:58:49;4.72;;;3.40;;
20122;SDS011;10222;50.848;4.336;2022-08-04T16:01:15;5.22;;;2.95;;
20122;SDS011;10222;50.848;4.336;2022-08-04T16:03:42;6.30;;;2.92;;
20122;SDS011;10222;50.848;4.336;2022-08-04T16:19:09;8.02;;;3.08;;
20122;SDS011;10222;50.848;4.336;2022-08-04T16:21:56;4.82;;;2.60;;
20122;SDS011;10222;50.848;4.336;2022-08-04T16:24:27;6.28;;;3.00;;
20122;SDS011;10222;50.848;4.336;2022-08-04T16:26:57;5.32;;;2.20;;
20122;SDS011;10222;50.848;4.336;2022-08-04T16:34:31;7.22;;;2.40;;
20122;SDS011;10222;50.848;4.336;2022-08-04T16:36:58;5.75;;;2.25;;
20122;SDS011;10222;50.848;4.336;2022-08-04T16:39:25;4.00;;;2.10;;
20122;SDS011;10222;50.848;4.336;2022-08-04T16:41:51;4.30;;;2.22;;
20122;SDS011;10222;50.848;4.336;2022-08-04T16:44:30;8.05;;;2.35;;
20122;SDS011;10222;50.848;4.336;2022-08-04T16:47:04;4.50;;;2.30;;
20122;SDS011;10222;50.848;4.336;2022-08-04T16:49:30;5.35;;;2.53;;
20122;SDS011;10222;50.848;4.336;2022-08-04T16:52:01;5.00;;;2.40;;
20122;SDS011;10222;50.848;4.336;2022-08-04T16:54:30;3.17;;;1.65;;
20122;SDS011;10222;50.848;4.336;2022-08-04T16:56:57;3.95;;;2.25;;
20122;SDS011;10222;50.848;4.336;2022-08-04T16:59:23;3.03;;;2.10;;
20122;SDS011;10222;50.848;4.336;2022-08-04T17:01:50;3.03;;;1.70;;
20122;SDS011;10222;50.848;4.336;2022-08-04T17:04:16;3.05;;;1.63;;
20122;SDS011;10222;50.848;4.336;2022-08-04T17:06:43;3.30;;;1.70;;
20122;SDS011;10222;50.848;4.336;2022-08-04T17:09:11;4.50;;;2.00;;
20122;SDS011;10222;50.848;4.336;2022-08-04T17:11:40;3.53;;;1.70;;
20122;SDS011;10222;50.848;4.336;2022-08-04T17:14:06;6.18;;;1.95;;
20122;SDS011;10222;50.848;4.336;2022-08-04T17:16:33;4.78;;;1.60;;
20122;SDS011;10222;50.848;4.336;2022-08-04T17:18:59;6.32;;;1.80;;
20122;SDS011;10222;50.848;4.336;2022-08-04T17:21:27;4.57;;;1.85;;
20122;SDS011;10222;50.848;4.336;2022-08-04T17:23:54;3.88;;;1.88;;
20122;SDS011;10222;50.848;4.336;2022-08-04T17:26:23;4.63;;;1.70;;
20122;SDS011;10222;50.848;4.336;2022-08-04T17:28:50;4.60;;;1.52;;
20122;SDS011;10222;50.848;4.336;2022-08-04T17:31:17;4.53;;;1.88;;
20122;SDS011;10222;50.848;4.336;2022-08-04T17:33:44;3.65;;;1.70;;
20122;SDS011;10222;50.848;4.336;2022-08-04T17:36:10;4.15;;;2.03;;
20122;SDS011;10222;50.848;4.336;2022-08-04T17:38:37;3.08;;;1.65;;
20122;SDS011;10222;50.848;4.336;2022-08-04T17:41:05;5.45;;;2.38;;
20122;SDS011;10222;50.848;4.336;2022-08-04T17:43:50;4.72;;;1.77;;
20122;SDS011;10222;50.848;4.336;2022-08-04T17:51:31;4.03;;;1.70;;
20122;SDS011;10222;50.848;4.336;2022-08-04T17:53:57;3.75;;;2.00;;
20122;SDS011;10222;50.848;4.336;2022-08-04T18:01:41;3.55;;;1.80;;
20122;SDS011;10222;50.848;4.336;2022-08-04T18:06:53;6.22;;;2.17;;
20122;SDS011;10222;50.848;4.336;2022-08-04T18:09:42;6.88;;;2.45;;
20122;SDS011;10222;50.848;4.336;2022-08-04T18:12:10;9.43;;;2.10;;
20122;SDS011;10222;50.848;4.336;2022-08-04T18:14:46;8.68;;;5.05;;
20122;SDS011;10222;50.848;4.336;2022-08-04T18:17:13;6.95;;;2.53;;
20122;SDS011;10222;50.848;4.336;2022-08-04T18:19:49;4.82;;;2.30;;
20122;SDS011;10222;50.848;4.336;2022-08-04T18:22:15;22.63;;;10.55;;
20122;SDS011;10222;50.848;4.336;2022-08-04T18:24:42;12.45;;;5.10;;
20122;SDS011;10222;50.848;4.336;2022-08-04T18:27:08;10.05;;;5.28;;
20122;SDS011;10222;50.848;4.336;2022-08-04T18:29:34;8.75;;;5.00;;
20122;SDS011;10222;50.848;4.336;2022-08-04T18:32:00;6.28;;;2.13;;
20122;SDS011;10222;50.848;4.336;2022-08-04T18:34:26;4.90;;;2.28;;
20122;SDS011;10222;50.848;4.336;2022-08-04T18:36:53;3.80;;;1.73;;
20122;SDS011;10222;50.848;4.336;2022-08-04T18:39:19;3.72;;;1.88;;
20122;SDS011;10222;50.848;4.336;2022-08-04T18:41:49;3.58;;;2.03;;
20122;SDS011;10222;50.848;4.336;2022-08-04T18:44:15;3.83;;;1.73;;
20122;SDS011;10222;50.848;4.336;2022-08-04T18:46:41;5.43;;;2.40;;
20122;SDS011;10222;50.848;4.336;2022-08-04T18:49:07;5.75;;;2.10;;
20122;SDS011;10222;50.848;4.336;2022-08-04T18:51:34;5.07;;;2.08;;
20122;SDS011;10222;50.848;4.336;2022-08-04T18:54:01;4.90;;;1.92;;
20122;SDS011;10222;50.848;4.336;2022-08-04T18:56:27;4.65;;;2.03;;
20122;SDS011;10222;50.848;4.336;2022-08-04T18:58:54;5.40;;;2.75;;
20122;SDS011;10222;50.848;4.336;2022-08-04T19:01:20;4.10;;;1.85;;
20122;SDS011;10222;50.848;4.336;2022-08-04T19:03:46;7.45;;;1.70;;
20122;SDS011;10222;50.848;4.336;2022-08-04T19:06:12;4.80;;;2.00;;
20122;SDS011;10222;50.848;4.336;2022-08-04T19:08:38;4.93;;;1.80;;
20122;SDS011;10222;50.848;4.336;2022-08-04T19:11:04;6.70;;;2.67;;
20122;SDS011;10222;50.848;4.336;2022-08-04T19:13:30;6.97;;;2.03;;
20122;SDS011;10222;50.848;4.336;2022-08-04T19:15:57;9.15;;;2.00;;
20122;SDS011;10222;50.848;4.336;2022-08-04T19:18:23;4.38;;;1.98;;
20122;SDS011;10222;50.848;4.336;2022-08-04T19:20:49;5.15;;;1.95;;
20122;SDS011;10222;50.848;4.336;2022-08-04T19:23:15;7.35;;;1.95;;
20122;SDS011;10222;50.848;4.336;2022-08-04T19:25:42;9.45;;;2.38;;
20122;SDS011;10222;50.848;4.336;2022-08-04T19:28:08;14.15;;;3.40;;
20122;SDS011;10222;50.848;4.336;2022-08-04T19:30:34;7.00;;;2.47;;
20122;SDS011;10222;50.848;4.336;2022-08-04T19:33:00;6.28;;;2.33;;